createdAt,value
2023-07-12T00:00:05.014Z,6.60
2023-07-12T00:01:05.132Z,6.90
2023-07-12T00:02:05.364Z,7.30
2023-07-12T00:03:05.616Z,7.00
2023-07-12T00:04:05.746Z,7.10
2023-07-12T00:05:05.870Z,7.10
2023-07-12T00:06:06.018Z,7.30
2023-07-12T00:07:06.211Z,8.00
2023-07-12T00:08:06.415Z,7.10
2023-07-12T00:09:06.605Z,8.40
2023-07-12T00:10:06.770Z,7.40
2023-07-12T00:11:07.170Z,8.00
2023-07-12T00:12:07.206Z,7.90
2023-07-12T00:13:07.370Z,7.20
2023-07-12T00:14:07.537Z,7.80
2023-07-12T00:15:07.737Z,6.50
2023-07-12T00:16:07.944Z,6.80
2023-07-12T00:17:08.141Z,7.10
2023-07-12T00:18:08.426Z,8.40
2023-07-12T00:19:08.640Z,7.70
2023-07-12T00:20:08.702Z,7.60
2023-07-12T00:21:09.155Z,7.60
2023-07-12T00:22:09.067Z,6.90
2023-07-12T00:23:09.271Z,8.00
2023-07-12T00:24:09.428Z,7.60
2023-07-12T00:25:09.622Z,8.10
2023-07-12T00:26:09.811Z,7.50
2023-07-12T00:28:10.215Z,7.50
2023-07-12T00:29:10.422Z,7.40
2023-07-12T00:30:10.560Z,7.50
2023-07-12T00:31:11.122Z,9.10
2023-07-12T00:32:10.949Z,8.30
2023-07-12T00:33:11.132Z,7.20
2023-07-12T00:34:11.321Z,6.90
2023-07-12T00:35:11.486Z,6.70
2023-07-12T00:36:11.740Z,7.80
2023-07-12T00:37:11.866Z,8.10
2023-07-12T00:38:12.031Z,7.90
2023-07-12T00:39:12.206Z,8.00
2023-07-12T00:40:12.510Z,8.10
2023-07-12T00:41:12.575Z,7.70
2023-07-12T00:42:12.735Z,8.30
2023-07-12T00:43:12.952Z,8.00
2023-07-12T00:44:13.125Z,7.30
2023-07-12T00:45:13.343Z,7.40
2023-07-12T00:46:13.500Z,7.70
2023-07-12T00:47:13.673Z,7.40
2023-07-12T00:48:13.862Z,8.40
2023-07-12T00:49:14.015Z,6.70
2023-07-12T00:50:14.268Z,7.80
2023-07-12T00:51:14.414Z,7.10
2023-07-12T00:52:14.609Z,7.90
2023-07-12T00:53:14.816Z,7.00
2023-07-12T00:54:15.024Z,7.90
2023-07-12T00:55:15.165Z,7.60
2023-07-12T00:56:15.349Z,8.20
2023-07-12T00:57:15.538Z,8.40
2023-07-12T00:58:15.748Z,7.40
2023-07-12T00:59:15.922Z,7.60
2023-07-12T01:00:16.097Z,7.10
2023-07-12T01:01:16.332Z,7.60
2023-07-12T01:02:16.491Z,8.40
2023-07-12T01:03:16.771Z,8.10
2023-07-12T01:04:16.833Z,7.80
2023-07-12T01:05:17.104Z,7.80
2023-07-12T01:06:17.238Z,8.30
2023-07-12T01:07:17.392Z,7.10
2023-07-12T01:08:17.615Z,7.50
2023-07-12T01:09:17.804Z,7.70
2023-07-12T01:10:17.988Z,7.60
2023-07-12T01:11:18.194Z,7.50
2023-07-12T01:12:18.353Z,8.00
2023-07-12T01:13:18.609Z,8.20
2023-07-12T01:14:18.753Z,8.30
2023-07-12T01:15:18.940Z,8.10
2023-07-12T01:16:19.226Z,7.50
2023-07-12T01:17:19.319Z,8.00
2023-07-12T01:18:19.613Z,8.40
2023-07-12T01:19:19.686Z,7.50
2023-07-12T01:20:19.872Z,8.00
2023-07-12T01:21:20.038Z,9.20
2023-07-12T01:22:20.254Z,8.20
2023-07-12T01:23:20.422Z,8.30
2023-07-12T01:24:20.600Z,8.10
2023-07-12T01:25:20.834Z,7.80
2023-07-12T01:26:20.977Z,6.70
2023-07-12T01:27:21.200Z,7.40
2023-07-12T01:28:21.323Z,7.40
2023-07-12T01:29:21.472Z,7.10
2023-07-12T01:30:21.625Z,8.00
2023-07-12T01:31:21.863Z,7.30
2023-07-12T01:32:22.053Z,7.70
2023-07-12T01:33:22.174Z,7.50
2023-07-12T01:34:22.395Z,7.80
2023-07-12T01:35:22.538Z,8.00
2023-07-12T01:36:22.741Z,8.50
2023-07-12T01:37:22.943Z,7.90
2023-07-12T01:38:23.109Z,7.80
2023-07-12T01:39:23.313Z,7.40
2023-07-12T01:40:23.511Z,7.90
2023-07-12T01:41:23.695Z,7.50
2023-07-12T01:42:23.896Z,7.60
2023-07-12T01:43:24.052Z,8.60
2023-07-12T01:44:24.267Z,7.50
2023-07-12T01:45:24.471Z,7.40
2023-07-12T01:46:24.650Z,7.60
2023-07-12T01:47:24.871Z,7.10
2023-07-12T01:48:25.015Z,7.90
2023-07-12T01:49:25.202Z,6.80
2023-07-12T01:50:25.387Z,8.20
2023-07-12T01:51:25.543Z,7.60
2023-07-12T01:52:25.747Z,7.80
2023-07-12T01:53:25.920Z,8.10
2023-07-12T01:54:26.101Z,7.90
2023-07-12T01:55:26.266Z,7.60
2023-07-12T01:56:26.463Z,9.10
2023-07-12T01:57:26.654Z,7.70
2023-07-12T01:58:26.860Z,7.90
2023-07-12T01:59:27.031Z,7.60
2023-07-12T02:00:27.237Z,8.40
2023-07-12T02:01:27.470Z,7.80
2023-07-12T02:02:27.698Z,7.90
2023-07-12T02:03:27.922Z,7.60
2023-07-12T02:04:27.983Z,7.60
2023-07-12T02:05:28.144Z,7.70
2023-07-12T02:06:28.365Z,8.40
2023-07-12T02:07:28.564Z,8.80
2023-07-12T02:08:28.706Z,8.20
2023-07-12T02:09:28.869Z,8.10
2023-07-12T02:10:29.068Z,7.30
2023-07-12T02:11:29.247Z,7.00
2023-07-12T02:12:29.441Z,8.10
2023-07-12T02:13:29.578Z,7.80
2023-07-12T02:14:29.800Z,8.60
2023-07-12T02:15:29.966Z,8.20
2023-07-12T02:16:30.230Z,8.40
2023-07-12T02:17:30.358Z,8.60
2023-07-12T02:18:30.540Z,8.30
2023-07-12T02:19:30.683Z,8.30
2023-07-12T02:20:30.894Z,8.00
2023-07-12T02:21:31.023Z,8.40
2023-07-12T02:22:31.219Z,8.30
2023-07-12T02:23:31.390Z,8.20
2023-07-12T02:24:31.554Z,7.80
2023-07-12T02:25:31.763Z,8.10
2023-07-12T02:26:31.937Z,8.10
2023-07-12T02:27:32.131Z,8.30
2023-07-12T02:28:32.290Z,8.10
2023-07-12T02:29:32.489Z,8.00
2023-07-12T02:30:32.699Z,8.20
2023-07-12T02:31:33.023Z,8.60
2023-07-12T02:32:33.074Z,8.20
2023-07-12T02:33:33.233Z,8.50
2023-07-12T02:34:33.419Z,8.50
2023-07-12T02:35:33.574Z,8.70
2023-07-12T02:36:33.743Z,8.00
2023-07-12T02:37:33.953Z,7.80
2023-07-12T02:38:34.128Z,8.10
2023-07-12T02:39:34.335Z,8.60
2023-07-12T02:40:34.506Z,8.40
2023-07-12T02:41:34.692Z,8.10
2023-07-12T02:42:34.881Z,7.80
2023-07-12T02:43:35.056Z,8.00
2023-07-12T02:44:35.270Z,8.50
2023-07-12T02:45:35.449Z,7.40
2023-07-12T02:46:35.635Z,8.30
2023-07-12T02:47:35.835Z,9.50
2023-07-12T02:48:35.973Z,10.30
2023-07-12T02:49:36.164Z,8.90
2023-07-12T02:50:36.379Z,8.90
2023-07-12T02:51:36.594Z,9.70
2023-07-12T02:52:36.748Z,8.50
2023-07-12T02:53:38.988Z,8.40
2023-07-12T02:54:37.144Z,9.00
2023-07-12T02:55:37.299Z,8.20
2023-07-12T02:56:37.495Z,9.10
2023-07-12T02:57:37.679Z,8.90
2023-07-12T02:58:38.001Z,9.20
2023-07-12T02:59:38.097Z,9.90
2023-07-12T03:00:38.284Z,9.70
2023-07-12T03:01:38.506Z,9.30
2023-07-12T03:02:38.670Z,8.60
2023-07-12T03:03:38.827Z,9.50
2023-07-12T03:04:39.027Z,8.90
2023-07-12T03:05:39.220Z,9.50
2023-07-12T03:06:39.354Z,9.10
2023-07-12T03:07:39.591Z,9.20
2023-07-12T03:08:39.806Z,9.10
2023-07-12T03:09:39.934Z,8.60
2023-07-12T03:10:40.092Z,8.70
2023-07-12T03:11:40.275Z,9.60
2023-07-12T03:12:40.496Z,8.70
2023-07-12T03:13:40.655Z,10.10
2023-07-12T03:14:40.828Z,9.50
2023-07-12T03:15:41.025Z,9.40
2023-07-12T03:16:41.261Z,8.50
2023-07-12T03:17:41.414Z,11.00
2023-07-12T03:18:41.684Z,9.20
2023-07-12T03:19:41.740Z,10.20
2023-07-12T03:20:41.896Z,9.10
2023-07-12T03:21:42.102Z,9.50
2023-07-12T03:22:42.242Z,9.00
2023-07-12T03:23:42.445Z,9.80
2023-07-12T03:24:42.602Z,9.70
2023-07-12T03:25:42.780Z,8.80
2023-07-12T03:26:42.977Z,9.40
2023-07-12T03:27:43.108Z,8.60
2023-07-12T03:28:43.299Z,9.60
2023-07-12T03:29:43.496Z,9.90
2023-07-12T03:30:43.687Z,9.90
2023-07-12T03:31:43.894Z,9.70
2023-07-12T03:32:44.059Z,9.10
2023-07-12T03:33:44.223Z,9.60
2023-07-12T03:34:44.401Z,9.90
2023-07-12T03:35:44.597Z,9.60
2023-07-12T03:36:44.793Z,9.70
2023-07-12T03:37:44.940Z,8.80
2023-07-12T03:38:45.114Z,10.60
2023-07-12T03:39:45.353Z,10.00
2023-07-12T03:40:45.507Z,9.60
2023-07-12T03:41:45.719Z,9.00
2023-07-12T03:42:45.874Z,10.30
2023-07-12T03:43:46.025Z,8.70
2023-07-12T03:44:46.203Z,9.80
2023-07-12T03:45:46.391Z,10.50
2023-07-12T03:46:46.694Z,10.00
2023-07-12T03:47:46.867Z,9.20
2023-07-12T03:48:46.994Z,10.80
2023-07-12T03:49:47.166Z,9.80
2023-07-12T03:50:47.326Z,9.60
2023-07-12T03:51:47.473Z,9.10
2023-07-12T03:52:47.676Z,9.90
2023-07-12T03:53:47.881Z,9.00
2023-07-12T03:54:48.052Z,10.20
2023-07-12T03:55:48.198Z,9.50
2023-07-12T03:56:48.397Z,11.90
2023-07-12T03:57:48.568Z,11.10
2023-07-12T03:58:48.765Z,10.30
2023-07-12T03:59:48.949Z,9.70
2023-07-12T04:00:49.172Z,10.60
2023-07-12T04:01:49.306Z,11.10
2023-07-12T04:02:49.602Z,10.80
2023-07-12T04:03:49.716Z,9.60
2023-07-12T04:04:49.865Z,11.70
2023-07-12T04:05:50.070Z,10.50
2023-07-12T04:06:50.200Z,10.60
2023-07-12T04:07:50.401Z,10.00
2023-07-12T04:08:50.636Z,9.90
2023-07-12T04:09:50.813Z,10.60
2023-07-12T04:10:50.980Z,11.20
2023-07-12T04:11:51.184Z,9.90
2023-07-12T04:12:51.357Z,10.20
2023-07-12T04:13:51.541Z,9.40
2023-07-12T04:14:51.744Z,10.30
2023-07-12T04:15:51.902Z,10.10
2023-07-12T04:16:52.106Z,9.60
2023-07-12T04:17:52.298Z,9.40
2023-07-12T04:18:52.434Z,10.50
2023-07-12T04:19:52.589Z,9.70
2023-07-12T04:20:52.798Z,9.60
2023-07-12T04:21:52.987Z,10.00
2023-07-12T04:22:53.171Z,9.70
2023-07-12T04:23:53.338Z,9.90
2023-07-12T04:24:53.547Z,11.80
2023-07-12T04:25:53.752Z,10.80
2023-07-12T04:26:53.917Z,9.20
2023-07-12T04:27:54.092Z,10.30
2023-07-12T04:28:54.282Z,10.70
2023-07-12T04:29:54.449Z,12.10
2023-07-12T04:30:54.669Z,9.80
2023-07-12T04:31:54.822Z,10.60
2023-07-12T04:32:55.037Z,10.80
2023-07-12T04:33:55.182Z,10.50
2023-07-12T04:34:55.396Z,10.70
2023-07-12T04:35:55.570Z,10.10
2023-07-12T04:36:55.714Z,11.30
2023-07-12T04:37:55.901Z,10.90
2023-07-12T04:38:56.097Z,10.20
2023-07-12T04:39:56.270Z,10.60
2023-07-12T04:40:56.485Z,11.10
2023-07-12T04:41:56.627Z,11.30
2023-07-12T04:42:56.801Z,11.40
2023-07-12T04:43:56.986Z,10.90
2023-07-12T04:44:57.188Z,12.40
2023-07-12T04:45:57.417Z,12.50
2023-07-12T04:46:57.652Z,11.10
2023-07-12T04:47:57.758Z,11.90
2023-07-12T04:48:57.958Z,11.30
2023-07-12T04:49:58.142Z,11.40
2023-07-12T04:50:58.339Z,12.10
2023-07-12T04:51:58.551Z,11.80
2023-07-12T04:52:58.717Z,11.40
2023-07-12T04:53:58.902Z,11.80
2023-07-12T04:54:59.123Z,12.60
2023-07-12T04:55:59.277Z,11.10
2023-07-12T04:56:59.496Z,11.20
2023-07-12T04:57:59.641Z,11.80
2023-07-12T04:58:59.854Z,12.10
2023-07-12T05:00:00.054Z,11.50
2023-07-12T05:01:00.316Z,11.00
2023-07-12T05:02:00.430Z,12.20
2023-07-12T05:03:00.701Z,12.20
2023-07-12T05:04:00.832Z,12.00
2023-07-12T05:05:00.984Z,12.60
2023-07-12T05:06:13.479Z,10.80
2023-07-12T05:07:02.382Z,12.60
2023-07-12T05:08:01.545Z,11.10
2023-07-12T05:09:01.736Z,13.60
2023-07-12T05:10:01.951Z,11.40
2023-07-12T05:11:02.137Z,13.50
2023-07-12T05:12:02.316Z,13.10
2023-07-12T05:13:02.492Z,12.00
2023-07-12T05:14:02.650Z,12.70
2023-07-12T05:15:04.015Z,12.30
2023-07-12T05:16:03.023Z,13.50
2023-07-12T05:17:03.262Z,13.10
2023-07-12T05:18:03.439Z,13.50
2023-07-12T05:19:03.624Z,13.20
2023-07-12T05:20:03.823Z,13.00
2023-07-12T05:21:03.945Z,11.60
2023-07-12T05:22:04.134Z,11.30
2023-07-12T05:23:04.313Z,13.20
2023-07-12T05:24:04.460Z,12.30
2023-07-12T05:25:04.672Z,12.10
2023-07-12T05:26:04.843Z,12.20
2023-07-12T05:27:05.062Z,11.80
2023-07-12T05:28:05.244Z,11.60
2023-07-12T05:29:05.558Z,13.10
2023-07-12T05:30:05.622Z,11.90
2023-07-12T05:31:05.862Z,12.10
2023-07-12T05:32:06.009Z,11.90
2023-07-12T05:33:06.232Z,11.60
2023-07-12T05:34:06.401Z,11.50
2023-07-12T05:35:06.541Z,11.10
2023-07-12T05:36:06.800Z,12.00
2023-07-12T05:37:06.957Z,12.40
2023-07-12T05:38:07.082Z,11.00
2023-07-12T05:39:07.308Z,10.30
2023-07-12T05:40:07.508Z,11.20
2023-07-12T05:41:07.668Z,10.70
2023-07-12T05:42:07.831Z,11.20
2023-07-12T05:43:08.003Z,11.90
2023-07-12T05:44:08.204Z,11.20
2023-07-12T05:45:08.407Z,10.90
2023-07-12T05:46:08.619Z,9.50
2023-07-12T05:47:08.803Z,11.10
2023-07-12T05:48:08.936Z,11.30
2023-07-12T05:49:09.143Z,9.80
2023-07-12T05:50:09.344Z,9.90
2023-07-12T05:51:10.050Z,10.50
2023-07-12T05:52:09.701Z,10.90
2023-07-12T05:53:09.926Z,9.00
2023-07-12T05:54:10.083Z,10.30
2023-07-12T05:55:10.316Z,10.30
2023-07-12T05:56:10.479Z,10.50
2023-07-12T05:57:10.640Z,9.60
2023-07-12T05:58:10.841Z,10.40
2023-07-12T05:59:11.050Z,9.30
2023-07-12T06:00:11.224Z,9.80
2023-07-12T06:01:11.974Z,9.90
2023-07-12T06:02:11.712Z,12.20
2023-07-12T06:03:11.869Z,9.60
2023-07-12T06:04:12.033Z,9.40
2023-07-12T06:05:12.154Z,9.10
2023-07-12T06:06:12.351Z,9.10
2023-07-12T06:07:12.546Z,8.90
2023-07-12T06:08:12.712Z,8.60
2023-07-12T06:09:12.949Z,9.20
2023-07-12T06:10:13.089Z,8.80
2023-07-12T06:11:13.455Z,9.10
2023-07-12T06:12:13.455Z,9.50
2023-07-12T06:13:13.607Z,9.90
2023-07-12T06:14:13.819Z,9.30
2023-07-12T06:15:14.069Z,10.60
2023-07-12T06:16:14.245Z,9.50
2023-07-12T06:17:14.473Z,11.20
2023-07-12T06:18:14.725Z,8.50
2023-07-12T06:19:14.714Z,9.60
2023-07-12T06:20:14.910Z,9.60
2023-07-12T06:21:15.102Z,8.70
2023-07-12T06:22:15.265Z,9.80
2023-07-12T06:23:15.497Z,9.40
2023-07-12T06:24:15.626Z,8.50
2023-07-12T06:25:15.804Z,9.10
2023-07-12T06:26:16.067Z,8.70
2023-07-12T06:27:16.168Z,8.30
2023-07-12T06:28:16.399Z,11.50
2023-07-12T06:29:16.566Z,8.50
2023-07-12T06:30:16.773Z,9.00
2023-07-12T06:31:16.967Z,9.00
2023-07-12T06:32:17.077Z,8.90
2023-07-12T06:33:17.281Z,9.70
2023-07-12T06:34:17.437Z,9.50
2023-07-12T06:35:17.644Z,9.40
2023-07-12T06:36:17.824Z,8.80
2023-07-12T06:37:17.994Z,8.60
2023-07-12T06:38:18.211Z,10.00
2023-07-12T06:39:18.375Z,9.80
2023-07-12T06:40:18.546Z,9.70
2023-07-12T06:41:18.725Z,9.00
2023-07-12T06:42:18.943Z,9.10
2023-07-12T06:43:19.128Z,9.70
2023-07-12T06:44:19.244Z,9.70
2023-07-12T06:45:19.434Z,9.50
2023-07-12T06:46:19.692Z,17.40
2023-07-12T06:47:19.808Z,9.00
2023-07-12T06:48:20.029Z,10.00
2023-07-12T06:49:20.197Z,9.00
2023-07-12T06:50:20.342Z,10.40
2023-07-12T06:51:20.529Z,10.50
2023-07-12T06:52:20.714Z,9.90
2023-07-12T06:53:20.917Z,10.10
2023-07-12T06:54:21.099Z,9.50
2023-07-12T06:55:21.278Z,10.50
2023-07-12T06:56:21.474Z,9.80
2023-07-12T06:57:21.666Z,10.30
2023-07-12T06:58:21.887Z,9.60
2023-07-12T06:59:22.039Z,9.80
2023-07-12T07:00:22.244Z,10.30
2023-07-12T07:01:22.458Z,10.80
2023-07-12T07:02:22.620Z,9.40
2023-07-12T07:03:22.800Z,9.00
2023-07-12T07:04:23.040Z,10.30
2023-07-12T07:05:23.140Z,9.30
2023-07-12T07:06:23.359Z,9.90
2023-07-12T07:07:23.486Z,10.60
2023-07-12T07:08:23.795Z,9.80
2023-07-12T07:09:23.848Z,11.20
2023-07-12T07:10:24.034Z,8.70
2023-07-12T07:11:24.285Z,8.80
2023-07-12T07:12:24.440Z,9.20
2023-07-12T07:13:24.620Z,9.90
2023-07-12T07:14:24.766Z,9.30
2023-07-12T07:15:24.961Z,10.70
2023-07-12T07:16:25.203Z,11.80
2023-07-12T07:17:25.347Z,9.50
2023-07-12T07:18:25.705Z,9.90
2023-07-12T07:19:25.706Z,9.60
2023-07-12T07:20:25.925Z,9.60
2023-07-12T07:21:26.064Z,8.90
2023-07-12T07:22:26.262Z,10.90
2023-07-12T07:23:26.444Z,10.10
2023-07-12T07:24:26.616Z,10.10
2023-07-12T07:25:26.827Z,10.50
2023-07-12T07:26:26.976Z,10.20
2023-07-12T07:27:27.173Z,11.30
2023-07-12T07:28:27.354Z,11.30
2023-07-12T07:29:27.560Z,9.50
2023-07-12T07:30:27.737Z,10.30
2023-07-12T07:31:27.942Z,10.90
2023-07-12T07:32:28.165Z,11.00
2023-07-12T07:33:28.318Z,10.40
2023-07-12T07:34:28.457Z,10.80
2023-07-12T07:35:28.646Z,10.60
2023-07-12T07:36:28.856Z,12.10
2023-07-12T07:37:29.031Z,11.20
2023-07-12T07:38:29.232Z,9.50
2023-07-12T07:39:29.393Z,9.80
2023-07-12T07:40:29.559Z,9.40
2023-07-12T07:41:29.745Z,10.40
2023-07-12T07:42:29.944Z,10.70
2023-07-12T07:43:30.122Z,10.20
2023-07-12T07:44:30.280Z,10.70
2023-07-12T07:45:30.444Z,9.90
2023-07-12T07:46:30.685Z,9.70
2023-07-12T07:47:30.862Z,10.00
2023-07-12T07:48:31.036Z,9.50
2023-07-12T07:49:31.202Z,11.00
2023-07-12T07:50:31.417Z,10.70
2023-07-12T07:51:31.576Z,9.40
2023-07-12T07:52:31.825Z,12.00
2023-07-12T07:53:32.036Z,12.00
2023-07-12T07:54:32.145Z,10.40
2023-07-12T07:55:32.329Z,10.90
2023-07-12T07:56:32.543Z,9.20
2023-07-12T07:57:32.672Z,11.60
2023-07-12T07:58:32.884Z,12.10
2023-07-12T07:59:33.057Z,10.00
2023-07-12T08:00:33.266Z,10.60
2023-07-12T08:01:33.454Z,11.10
2023-07-12T08:02:33.747Z,9.70
2023-07-12T08:03:34.032Z,11.00
2023-07-12T08:04:34.084Z,9.70
2023-07-12T08:05:34.149Z,9.20
2023-07-12T08:06:34.358Z,8.90
2023-07-12T08:07:34.494Z,9.60
2023-07-12T08:08:34.716Z,9.10
2023-07-12T08:09:34.934Z,9.70
2023-07-12T08:10:35.108Z,8.60
2023-07-12T08:11:36.785Z,8.40
2023-07-12T08:12:35.425Z,8.00
2023-07-12T08:13:35.614Z,7.90
2023-07-12T08:14:35.811Z,9.60
2023-07-12T08:15:36.010Z,8.70
2023-07-12T08:16:36.200Z,8.40
2023-07-12T08:17:36.372Z,8.80
2023-07-12T08:18:36.636Z,8.80
2023-07-12T08:19:36.725Z,9.80
2023-07-12T08:20:36.965Z,7.60
2023-07-12T08:21:37.106Z,9.00
2023-07-12T08:22:37.303Z,9.00
2023-07-12T08:23:37.490Z,8.70
2023-07-12T08:24:37.669Z,7.90
2023-07-12T08:25:37.862Z,9.10
2023-07-12T08:26:38.043Z,7.60
2023-07-12T08:27:38.251Z,8.30
2023-07-12T08:28:38.391Z,8.70
2023-07-12T08:29:38.564Z,8.30
2023-07-12T08:30:38.764Z,7.60
2023-07-12T08:31:38.950Z,8.20
2023-07-12T08:32:39.183Z,8.00
2023-07-12T08:33:39.337Z,8.10
2023-07-12T08:34:39.478Z,8.50
2023-07-12T08:35:48.097Z,7.20
2023-07-12T08:36:40.816Z,7.80
2023-07-12T08:37:39.991Z,8.40
2023-07-12T08:38:40.164Z,7.10
2023-07-12T08:39:40.380Z,7.30
2023-07-12T08:40:40.579Z,7.70
2023-07-12T08:41:40.739Z,8.10
2023-07-12T08:42:40.895Z,9.10
2023-07-12T08:43:41.074Z,8.00
2023-07-12T08:44:41.244Z,7.10
2023-07-12T08:45:41.502Z,7.30
2023-07-12T08:46:41.602Z,8.30
2023-07-12T08:47:41.799Z,6.80
2023-07-12T08:48:41.968Z,7.00
2023-07-12T08:49:42.131Z,6.80
2023-07-12T08:50:42.329Z,6.80
2023-07-12T08:51:44.763Z,7.40
2023-07-12T08:52:42.728Z,8.50
2023-07-12T08:53:42.908Z,7.10
2023-07-12T08:54:43.098Z,8.00
2023-07-12T08:55:43.291Z,6.90
2023-07-12T08:56:43.457Z,6.60
2023-07-12T08:57:43.608Z,7.40
2023-07-12T08:58:43.777Z,6.20
2023-07-12T08:59:43.980Z,6.30
2023-07-12T09:00:44.195Z,7.20
2023-07-12T09:01:44.447Z,7.80
2023-07-12T09:02:44.527Z,6.20
2023-07-12T09:03:44.708Z,7.70
2023-07-12T09:04:44.910Z,8.70
2023-07-12T09:05:45.117Z,7.40
2023-07-12T09:06:45.229Z,8.20
2023-07-12T09:07:45.413Z,7.70
2023-07-12T09:08:45.583Z,7.90
2023-07-12T09:09:45.779Z,7.00
2023-07-12T09:10:45.984Z,7.70
2023-07-12T09:11:46.203Z,6.80
2023-07-12T09:12:46.311Z,5.80
2023-07-12T09:13:46.494Z,7.50
2023-07-12T09:14:48.754Z,6.20
2023-07-12T09:15:46.840Z,6.40
2023-07-12T09:16:47.062Z,5.10
2023-07-12T09:17:47.256Z,5.40
2023-07-12T09:18:47.443Z,5.70
2023-07-12T09:19:47.600Z,5.40
2023-07-12T09:20:47.759Z,6.10
2023-07-12T09:21:48.438Z,5.20
2023-07-12T09:22:48.119Z,5.50
2023-07-12T09:23:48.319Z,5.60
2023-07-12T09:24:48.502Z,4.60
2023-07-12T09:25:48.714Z,5.30
2023-07-12T09:26:48.881Z,5.80
2023-07-12T09:27:49.056Z,4.50
2023-07-12T09:28:49.233Z,5.00
2023-07-12T09:29:49.405Z,5.50
2023-07-12T09:30:49.586Z,4.40
2023-07-12T09:31:49.816Z,4.80
2023-07-12T09:32:50.031Z,5.40
2023-07-12T09:33:50.125Z,5.20
2023-07-12T09:34:50.303Z,5.20
2023-07-12T09:35:50.502Z,4.10
2023-07-12T09:36:50.698Z,6.10
2023-07-12T09:37:50.884Z,3.70
2023-07-12T09:38:51.033Z,4.40
2023-07-12T09:39:51.226Z,4.20
2023-07-12T09:40:51.415Z,4.20
2023-07-12T09:41:52.030Z,4.70
2023-07-12T09:42:51.815Z,6.50
2023-07-12T09:43:51.987Z,5.60
2023-07-12T09:44:52.128Z,4.60
2023-07-12T09:46:09.352Z,4.60
2023-07-12T09:46:53.580Z,5.30
2023-07-12T09:47:52.738Z,4.30
2023-07-12T09:48:52.884Z,4.00
2023-07-12T09:49:53.067Z,4.80
2023-07-12T09:50:53.220Z,5.10
2023-07-12T09:51:53.439Z,5.10
2023-07-12T09:52:53.613Z,4.90
2023-07-12T09:53:53.775Z,4.90
2023-07-12T09:54:53.967Z,5.10
2023-07-12T09:55:54.169Z,5.50
2023-07-12T09:56:54.321Z,5.60
2023-07-12T09:57:54.552Z,4.10
2023-07-12T09:58:54.694Z,4.90
2023-07-12T09:59:54.884Z,4.50
2023-07-12T10:00:55.081Z,4.70
2023-07-12T10:01:55.355Z,4.70
2023-07-12T10:02:55.505Z,5.50
2023-07-12T10:03:58.123Z,4.50
2023-07-12T10:04:55.844Z,5.60
2023-07-12T10:05:56.019Z,5.40
2023-07-12T10:06:56.192Z,5.60
2023-07-12T10:07:56.344Z,4.60
2023-07-12T10:08:56.554Z,7.00
2023-07-12T10:09:56.711Z,5.10
2023-07-12T10:10:56.880Z,4.90
2023-07-12T10:11:57.066Z,4.80
2023-07-12T10:12:57.273Z,4.60
2023-07-12T10:13:57.454Z,5.00
2023-07-12T10:14:57.690Z,3.70
2023-07-12T10:15:57.785Z,3.90
2023-07-12T10:16:58.010Z,4.80
2023-07-12T10:17:58.303Z,6.20
2023-07-12T10:18:58.557Z,4.30
2023-07-12T10:19:58.559Z,4.30
2023-07-12T10:20:58.734Z,3.60
2023-07-12T10:21:58.907Z,5.10
2023-07-12T10:22:59.100Z,4.40
2023-07-12T10:23:59.246Z,4.80
2023-07-12T10:24:59.437Z,4.10
2023-07-12T10:25:59.626Z,5.30
2023-07-12T10:26:59.798Z,4.80
2023-07-12T10:28:00.009Z,5.20
2023-07-12T10:29:00.179Z,4.80
2023-07-12T10:30:00.344Z,5.60
2023-07-12T10:31:00.578Z,3.70
2023-07-12T10:32:00.762Z,3.50
2023-07-12T10:33:00.990Z,4.30
2023-07-12T10:34:01.136Z,4.00
2023-07-12T10:35:01.308Z,4.30
2023-07-12T10:36:01.488Z,3.40
2023-07-12T10:37:01.686Z,3.50
2023-07-12T10:38:01.866Z,4.20
2023-07-12T10:39:02.052Z,4.50
2023-07-12T10:40:02.243Z,4.00
2023-07-12T10:41:02.402Z,4.20
2023-07-12T10:42:02.587Z,4.30
2023-07-12T10:43:02.830Z,3.80
2023-07-12T10:44:02.936Z,4.80
2023-07-12T10:45:03.130Z,3.00
2023-07-12T10:46:03.368Z,3.40
2023-07-12T10:47:03.558Z,3.80
2023-07-12T10:48:03.762Z,3.90
2023-07-12T10:49:03.886Z,3.70
2023-07-12T10:50:04.110Z,3.00
2023-07-12T10:51:04.264Z,4.40
2023-07-12T10:52:04.460Z,3.80
2023-07-12T10:53:04.718Z,3.20
2023-07-12T10:54:04.817Z,3.80
2023-07-12T10:55:05.180Z,2.90
2023-07-12T10:56:05.180Z,4.00
2023-07-12T10:57:05.354Z,4.20
2023-07-12T10:58:05.544Z,4.00
2023-07-12T10:59:05.724Z,3.30
2023-07-12T11:00:05.977Z,4.00
2023-07-12T11:01:06.197Z,3.00
2023-07-12T11:02:06.377Z,3.50
2023-07-12T11:03:06.603Z,3.70
2023-07-12T11:04:06.675Z,2.40
2023-07-12T11:05:06.837Z,3.90
2023-07-12T11:06:07.041Z,4.00
2023-07-12T11:07:07.205Z,2.80
2023-07-12T11:08:07.359Z,3.50
2023-07-12T11:09:07.555Z,4.00
2023-07-12T11:10:07.756Z,3.20
2023-07-12T11:11:08.189Z,4.00
2023-07-12T11:12:08.101Z,3.80
2023-07-12T11:13:08.282Z,4.10
2023-07-12T11:14:08.439Z,3.50
2023-07-12T11:15:08.662Z,3.80
2023-07-12T11:16:08.843Z,3.70
2023-07-12T11:17:09.180Z,3.90
2023-07-12T11:18:09.284Z,2.40
2023-07-12T11:19:09.418Z,3.20
2023-07-12T11:20:09.589Z,3.00
2023-07-12T11:21:09.930Z,3.80
2023-07-12T11:22:09.947Z,3.40
2023-07-12T11:23:10.084Z,4.00
2023-07-12T11:24:10.316Z,3.50
2023-07-12T11:25:10.448Z,3.90
2023-07-12T11:26:10.626Z,3.40
2023-07-12T11:27:10.837Z,4.00
2023-07-12T11:28:11.023Z,3.60
2023-07-12T11:29:11.243Z,3.50
2023-07-12T11:30:11.359Z,4.40
2023-07-12T11:31:11.908Z,4.20
2023-07-12T11:32:11.734Z,3.80
2023-07-12T11:33:11.971Z,3.90
2023-07-12T11:34:12.128Z,3.00
2023-07-12T11:35:12.291Z,3.30
2023-07-12T11:36:12.489Z,3.20
2023-07-12T11:37:12.674Z,3.40
2023-07-12T11:38:12.846Z,3.30
2023-07-12T11:39:13.025Z,3.50
2023-07-12T11:40:13.218Z,3.20
2023-07-12T11:41:13.433Z,3.50
2023-07-12T11:42:13.585Z,3.90
2023-07-12T11:43:13.765Z,3.00
2023-07-12T11:44:13.967Z,2.90
2023-07-12T11:45:15.126Z,3.60
2023-07-12T11:46:14.448Z,4.70
2023-07-12T11:47:14.525Z,4.20
2023-07-12T11:48:14.784Z,4.60
2023-07-12T11:49:14.873Z,3.80
2023-07-12T11:50:15.088Z,3.30
2023-07-12T11:51:15.277Z,2.80
2023-07-12T11:52:15.440Z,3.30
2023-07-12T11:53:15.632Z,3.40
2023-07-12T11:54:15.808Z,3.80
2023-07-12T11:55:16.020Z,3.00
2023-07-12T11:56:16.162Z,3.60
2023-07-12T11:57:16.341Z,4.20
2023-07-12T11:58:16.532Z,4.00
2023-07-12T11:59:16.764Z,3.00
2023-07-12T12:00:16.906Z,3.30
2023-07-12T12:01:17.044Z,3.90
2023-07-12T12:02:17.234Z,2.90
2023-07-12T12:03:17.560Z,3.40
2023-07-12T12:04:17.695Z,3.00
2023-07-12T12:05:17.923Z,3.10
2023-07-12T12:06:17.991Z,3.00
2023-07-12T12:07:18.173Z,3.10
2023-07-12T12:08:18.344Z,3.80
2023-07-12T12:09:18.582Z,3.40
2023-07-12T12:10:18.717Z,3.80
2023-07-12T12:11:18.884Z,3.80
2023-07-12T12:12:19.134Z,2.10
2023-07-12T12:13:19.376Z,2.80
2023-07-12T12:14:19.486Z,3.50
2023-07-12T12:15:19.629Z,3.00
2023-07-12T12:16:19.835Z,2.60
2023-07-12T12:17:20.051Z,3.60
2023-07-12T12:18:20.507Z,2.50
2023-07-12T12:19:20.790Z,2.80
2023-07-12T12:20:21.183Z,2.50
2023-07-12T12:21:21.312Z,3.70
2023-07-12T12:22:21.162Z,3.30
2023-07-12T12:23:21.129Z,3.60
2023-07-12T12:24:21.330Z,2.80
2023-07-12T12:25:21.534Z,4.00
2023-07-12T12:26:23.398Z,2.80
2023-07-12T12:27:21.864Z,2.70
2023-07-12T12:28:22.048Z,2.40
2023-07-12T12:29:22.286Z,2.90
2023-07-12T12:30:22.445Z,2.50
2023-07-12T12:31:22.710Z,2.50
2023-07-12T12:32:22.995Z,2.10
2023-07-12T12:33:22.981Z,2.70
2023-07-12T12:34:23.169Z,2.50
2023-07-12T12:35:23.464Z,3.60
2023-07-12T12:36:23.531Z,2.00
2023-07-12T12:37:23.751Z,2.50
2023-07-12T12:38:23.908Z,3.00
2023-07-12T12:39:24.098Z,2.40
2023-07-12T12:40:24.315Z,2.20
2023-07-12T12:41:24.460Z,3.00
2023-07-12T12:42:24.648Z,2.10
2023-07-12T12:43:24.845Z,3.00
2023-07-12T12:44:25.042Z,2.50
2023-07-12T12:45:25.218Z,2.00
2023-07-12T12:46:26.308Z,1.90
2023-07-12T12:47:25.706Z,2.40
2023-07-12T12:49:38.420Z,3.40
2023-07-12T12:53:33.655Z,2.60
2023-07-12T12:54:28.069Z,2.00
2023-07-12T12:59:45.420Z,2.90
2023-07-12T13:04:50.191Z,2.20
2023-07-12T13:04:50.459Z,1.90
2023-07-12T13:04:54.824Z,2.60
2023-07-12T13:05:33.178Z,1.90
2023-07-12T13:06:29.317Z,1.50
2023-07-12T13:07:44.934Z,2.90
2023-07-12T13:17:54.916Z,3.10
2023-07-12T13:19:10.671Z,1.70
2023-07-12T13:19:33.676Z,2.50
2023-07-12T13:20:31.850Z,2.00
2023-07-12T13:21:31.990Z,1.90
2023-07-12T13:22:32.023Z,3.30
2023-07-12T13:24:32.368Z,3.50
2023-07-12T13:25:32.547Z,2.10
2023-07-12T13:26:32.738Z,3.10
2023-07-12T13:27:32.960Z,2.20
2023-07-12T13:28:33.115Z,1.60
2023-07-12T13:29:33.288Z,2.60
2023-07-12T13:30:33.480Z,4.10
2023-07-12T13:31:33.712Z,3.00
2023-07-12T13:32:33.899Z,1.90
2023-07-12T13:33:34.085Z,2.40
2023-07-12T13:36:34.652Z,2.20
2023-07-12T13:37:42.349Z,3.60